Time;durP1;ratioP1;P1;durP2;ratioP2;P2;SDS_P1;SDS_P2;PMS_P1;PMS_P2;Temp;Humidity;BMP_temperature;BMP_pressure;BME280_temperature;BME280_humidity;BME280_pressure;Samples;Min_cycle;Max_cycle;Signal;HPM_P1;HPM_P2
2022/03/18 00:01:56;;;;;;;;;;;20.90;39.00;;;;;;5143777;27;20622;-49
2022/03/18 00:04:22;;;;;;;;;;;21.20;38.60;;;;;;5149416;27;20369;-58
2022/03/18 00:06:48;;;;;;;;;;;20.90;38.90;;;;;;5143914;27;19926;-59
2022/03/18 00:09:14;;;;;;;;;;;21.20;38.50;;;;;;5148052;27;19923;-58
2022/03/18 00:11:39;;;;;;;;;;;21.20;38.50;;;;;;5140196;27;19981;-58
2022/03/18 00:14:05;;;;;;;;;;;21.20;38.50;;;;;;5143736;27;19930;-56
2022/03/18 00:16:31;;;;;;;;;;;21.00;38.60;;;;;;5148761;27;19966;-58
2022/03/18 00:19:00;;;;;;;;;;;21.10;38.50;;;;;;5143820;27;19994;-58
2022/03/18 00:21:27;;;;;;;;;;;21.00;38.60;;;;;;5143590;27;19979;-58
2022/03/18 00:23:53;;;;;;;;;;;21.20;38.10;;;;;;5130815;27;19946;-58
2022/03/18 00:26:19;;;;;;;;;;;21.10;38.20;;;;;;5143617;27;20382;-59
2022/03/18 00:28:44;;;;;;;;;;;21.20;38.00;;;;;;5142558;27;20420;-58
2022/03/18 00:31:12;;;;;;;;;;;21.10;38.30;;;;;;5145035;27;19923;-58
2022/03/18 00:33:37;;;;;;;;;;;21.00;38.40;;;;;;5143301;27;19975;-48
2022/03/18 00:36:03;;;;;;;;;;;21.20;38.10;;;;;;5149038;27;19923;-59
2022/03/18 00:38:31;;;;;;;;;;;21.10;38.20;;;;;;5143352;27;20014;-57
2022/03/18 00:40:57;;;;;;;;;;;21.30;37.80;;;;;;5143319;27;20367;-59
2022/03/18 00:43:23;;;;;;;;;;;21.10;38.30;;;;;;5148938;27;19934;-50
2022/03/18 00:45:49;;;;;;;;;;;21.10;38.10;;;;;;5142243;27;19923;-51
2022/03/18 00:53:43;;;;;;;;;;;21.20;37.70;;;;;;5143147;27;19943;-59
2022/03/18 00:56:09;;;;;;;;;;;20.90;38.30;;;;;;5124673;27;20657;-59
2022/03/18 00:58:35;;;;;;;;;;;21.30;37.70;;;;;;5130017;27;19927;-59
2022/03/18 01:01:01;;;;;;;;;;;20.90;38.40;;;;;;5142901;27;20025;-51
2022/03/18 01:03:26;;;;;;;;;;;21.20;37.70;;;;;;5148049;27;19931;-59
2022/03/18 01:05:52;;;;;;;;;;;20.80;38.20;;;;;;5137759;27;19977;-56
2022/03/18 01:08:18;;;;;;;;;;;21.10;37.70;;;;;;5142755;27;20217;-53
2022/03/18 01:10:44;;;;;;;;;;;20.90;38.10;;;;;;5148351;27;19929;-59
2022/03/18 01:13:10;;;;;;;;;;;21.10;37.70;;;;;;5142584;27;19930;-56
2022/03/18 01:15:36;;;;;;;;;;;21.20;37.50;;;;;;5142730;27;19929;-58
2022/03/18 01:18:02;;;;;;;;;;;20.90;38.00;;;;;;5147967;27;20301;-55
2022/03/18 01:20:28;;;;;;;;;;;21.20;37.40;;;;;;5142710;27;20051;-59
2022/03/18 01:22:54;;;;;;;;;;;21.00;37.80;;;;;;5146146;27;19923;-55
2022/03/18 01:25:20;;;;;;;;;;;21.20;37.30;;;;;;5139589;27;19970;-57
2022/03/18 01:27:46;;;;;;;;;;;20.90;37.80;;;;;;5141701;27;19931;-58
2022/03/18 01:30:13;;;;;;;;;;;21.30;37.20;;;;;;5147946;27;19927;-58
2022/03/18 01:32:39;;;;;;;;;;;20.90;37.80;;;;;;5142511;27;19974;-49
2022/03/18 01:35:05;;;;;;;;;;;21.10;37.40;;;;;;5142646;27;20013;-58
2022/03/18 01:37:31;;;;;;;;;;;21.00;37.60;;;;;;5147847;27;19931;-52
2022/03/18 01:39:57;;;;;;;;;;;21.10;37.40;;;;;;5142289;27;20029;-53
2022/03/18 01:42:23;;;;;;;;;;;21.20;37.30;;;;;;5140131;27;19923;-54
2022/03/18 01:44:49;;;;;;;;;;;21.20;37.30;;;;;;5146175;27;20279;-54
2022/03/18 01:47:14;;;;;;;;;;;21.20;37.10;;;;;;5142502;27;19923;-60
2022/03/18 01:49:40;;;;;;;;;;;21.00;37.50;;;;;;5147727;27;19927;-50
2022/03/18 01:52:07;;;;;;;;;;;21.20;37.20;;;;;;5142723;27;19930;-55
2022/03/18 01:54:45;;;;;;;;;;;21.20;37.30;;;;;;5142987;27;20585;-53
2022/03/18 01:57:11;;;;;;;;;;;21.00;37.30;;;;;;5147892;27;19931;-54
2022/03/18 01:59:37;;;;;;;;;;;21.10;37.10;;;;;;5141380;27;19945;-53
2022/03/18 02:02:03;;;;;;;;;;;21.00;37.30;;;;;;5119584;27;20111;-51
2022/03/18 02:04:29;;;;;;;;;;;21.20;36.90;;;;;;5147706;27;20362;-58
2022/03/18 02:06:55;;;;;;;;;;;20.90;37.40;;;;;;5123422;27;19934;-58
2022/03/18 02:09:20;;;;;;;;;;;21.10;37.00;;;;;;5128646;27;19967;-55
2022/03/18 02:11:46;;;;;;;;;;;20.90;37.30;;;;;;5142445;27;19923;-56
2022/03/18 02:14:12;;;;;;;;;;;21.20;36.90;;;;;;5142182;27;20478;-59
2022/03/18 02:16:40;;;;;;;;;;;21.00;37.10;;;;;;5147619;27;19930;-56
2022/03/18 02:19:06;;;;;;;;;;;21.20;36.80;;;;;;5138066;27;20297;-58
2022/03/18 02:21:33;;;;;;;;;;;21.00;37.10;;;;;;5141377;27;20031;-49
2022/03/18 02:23:59;;;;;;;;;;;21.10;36.80;;;;;;5147526;27;19923;-47
2022/03/18 02:26:24;;;;;;;;;;;21.20;36.70;;;;;;5142203;27;20014;-56
2022/03/18 02:28:50;;;;;;;;;;;21.00;36.90;;;;;;5144231;27;20304;-55
2022/03/18 02:31:16;;;;;;;;;;;21.20;36.60;;;;;;5127183;27;20375;-58
2022/03/18 02:33:42;;;;;;;;;;;21.10;36.70;;;;;;5141910;27;19927;-56
2022/03/18 02:36:08;;;;;;;;;;;21.10;36.70;;;;;;5146905;27;20270;-53
2022/03/18 02:38:33;;;;;;;;;;;21.30;36.50;;;;;;5137529;27;19930;-59
2022/03/18 02:40:59;;;;;;;;;;;21.10;36.80;;;;;;5145367;27;20028;-54
2022/03/18 02:43:25;;;;;;;;;;;20.90;36.70;;;;;;5151340;27;20346;-60
2022/03/18 02:45:51;;;;;;;;;;;21.10;36.70;;;;;;5145574;27;19975;-57
2022/03/18 02:48:17;;;;;;;;;;;21.00;36.70;;;;;;5145832;27;20301;-59
2022/03/18 02:50:43;;;;;;;;;;;21.10;36.50;;;;;;5151203;27;19923;-50
2022/03/18 02:53:09;;;;;;;;;;;21.00;36.60;;;;;;5145460;27;20285;-58
2022/03/18 02:55:35;;;;;;;;;;;21.20;36.40;;;;;;5147351;27;20626;-52
2022/03/18 02:58:01;;;;;;;;;;;20.90;36.70;;;;;;5144129;27;19933;-59
2022/03/18 03:00:27;;;;;;;;;;;21.10;36.40;;;;;;5145309;27;19927;-59
2022/03/18 03:02:52;;;;;;;;;;;20.90;36.80;;;;;;5150705;27;20392;-58
2022/03/18 03:08:03;;;;;;;;;;;20.90;36.70;;;;;;5145295;27;19940;-53
2022/03/18 03:10:32;;;;;;;;;;;21.20;36.20;;;;;;5150619;27;19927;-58
2022/03/18 03:12:59;;;;;;;;;;;21.00;36.70;;;;;;5126386;27;19923;-58
2022/03/18 03:15:25;;;;;;;;;;;21.10;36.30;;;;;;5140462;27;19937;-58
2022/03/18 03:17:51;;;;;;;;;;;20.90;36.60;;;;;;5150426;27;20378;-56
2022/03/18 03:20:17;;;;;;;;;;;21.30;36.10;;;;;;5145466;27;19971;-58
2022/03/18 03:22:43;;;;;;;;;;;21.00;36.40;;;;;;5150410;27;19934;-55
2022/03/18 03:25:08;;;;;;;;;;;21.20;36.10;;;;;;5145420;27;19968;-58
2022/03/18 03:27:34;;;;;;;;;;;21.10;36.30;;;;;;5144855;27;19940;-58
2022/03/18 03:30:01;;;;;;;;;;;21.20;36.10;;;;;;5150309;27;19975;-59
2022/03/18 03:32:27;;;;;;;;;;;21.00;36.40;;;;;;5123101;27;19931;-50
2022/03/18 03:34:54;;;;;;;;;;;21.20;36.20;;;;;;5143118;27;19930;-54
2022/03/18 03:37:20;;;;;;;;;;;21.20;36.10;;;;;;5150363;27;19923;-59
2022/03/18 03:39:46;;;;;;;;;;;20.90;36.40;;;;;;5144751;27;19923;-50
2022/03/18 03:42:12;;;;;;;;;;;21.30;36.00;;;;;;5150042;27;19991;-58
2022/03/18 03:44:37;;;;;;;;;;;20.90;36.50;;;;;;5126196;27;19923;-57
2022/03/18 03:47:03;;;;;;;;;;;21.10;36.10;;;;;;5144406;27;19930;-58
2022/03/18 03:49:29;;;;;;;;;;;21.00;36.40;;;;;;5149801;27;19950;-51
2022/03/18 03:51:55;;;;;;;;;;;21.30;35.80;;;;;;5138771;27;19975;-59
2022/03/18 03:54:20;;;;;;;;;;;21.20;35.90;;;;;;5144220;27;19923;-55
2022/03/18 03:56:46;;;;;;;;;;;21.00;36.00;;;;;;5149504;27;20271;-59
2022/03/18 03:59:12;;;;;;;;;;;21.20;35.80;;;;;;5144362;27;19964;-59
2022/03/18 04:01:38;;;;;;;;;;;20.90;36.20;;;;;;5149372;27;20362;-58
2022/03/18 04:04:04;;;;;;;;;;;21.20;35.90;;;;;;5144939;27;19923;-57
2022/03/18 04:06:30;;;;;;;;;;;20.90;36.20;;;;;;5144247;27;20017;-59
2022/03/18 04:08:56;;;;;;;;;;;21.20;35.90;;;;;;5147439;27;20285;-52
2022/03/18 04:11:22;;;;;;;;;;;21.10;35.90;;;;;;5140737;27;19923;-58
2022/03/18 04:13:48;;;;;;;;;;;21.20;35.80;;;;;;5144045;27;20562;-59
2022/03/18 04:16:15;;;;;;;;;;;21.00;36.20;;;;;;5149281;27;19923;-53
2022/03/18 04:18:41;;;;;;;;;;;21.30;35.80;;;;;;5143830;27;20438;-56
2022/03/18 04:21:07;;;;;;;;;;;20.90;36.30;;;;;;5146090;27;20013;-51
2022/03/18 04:23:32;;;;;;;;;;;21.30;35.70;;;;;;5147333;27;19923;-58
2022/03/18 04:25:58;;;;;;;;;;;20.90;36.10;;;;;;5143608;27;19923;-59
2022/03/18 04:28:24;;;;;;;;;;;21.20;35.70;;;;;;5144276;27;20427;-57
2022/03/18 04:30:50;;;;;;;;;;;21.00;35.90;;;;;;5143465;27;20255;-53
2022/03/18 04:33:15;;;;;;;;;;;21.30;35.50;;;;;;5143634;27;19931;-59
2022/03/18 04:35:41;;;;;;;;;;;20.80;36.20;;;;;;5148834;27;19923;-51
2022/03/18 04:38:07;;;;;;;;;;;21.10;35.60;;;;;;5143592;27;19934;-60
2022/03/18 04:40:33;;;;;;;;;;;21.10;35.60;;;;;;5143801;27;19931;-56
2022/03/18 04:42:58;;;;;;;;;;;21.10;35.60;;;;;;5148795;27;19923;-60
2022/03/18 04:45:24;;;;;;;;;;;21.10;35.80;;;;;;5142853;27;19934;-57
2022/03/18 04:47:50;;;;;;;;;;;21.30;35.40;;;;;;5144220;27;20365;-58
2022/03/18 04:50:16;;;;;;;;;;;21.00;35.90;;;;;;5143148;27;19965;-58
2022/03/18 04:52:42;;;;;;;;;;;21.20;35.30;;;;;;5143365;27;19927;-60
2022/03/18 04:55:07;;;;;;;;;;;21.00;35.70;;;;;;5130404;27;20377;-54
2022/03/18 04:57:33;;;;;;;;;;;21.00;35.70;;;;;;5143149;27;20352;-54
2022/03/18 04:59:59;;;;;;;;;;;21.20;35.30;;;;;;5143253;27;20259;-59
2022/03/18 05:02:25;;;;;;;;;;;20.90;35.60;;;;;;5148592;27;20230;-56
2022/03/18 05:04:51;;;;;;;;;;;21.20;35.30;;;;;;5139229;27;19931;-58
2022/03/18 05:07:16;;;;;;;;;;;21.00;35.70;;;;;;5146935;27;20441;-55
2022/03/18 05:09:42;;;;;;;;;;;21.30;35.20;;;;;;5124707;27;20032;-59
2022/03/18 05:12:09;;;;;;;;;;;21.10;35.40;;;;;;5142571;27;19954;-51
2022/03/18 05:14:35;;;;;;;;;;;21.20;35.20;;;;;;5148462;27;19923;-57
2022/03/18 05:17:02;;;;;;;;;;;21.10;35.30;;;;;;5142855;27;19924;-56
2022/03/18 05:19:27;;;;;;;;;;;21.30;35.00;;;;;;5142981;27;20534;-59
2022/03/18 05:21:55;;;;;;;;;;;21.00;35.50;;;;;;5147883;27;19927;-54
2022/03/18 05:24:21;;;;;;;;;;;21.10;35.10;;;;;;5137732;27;19923;-58
2022/03/18 05:26:46;;;;;;;;;;;21.00;35.40;;;;;;5147950;27;20302;-50
2022/03/18 05:29:14;;;;;;;;;;;21.10;35.20;;;;;;5142625;27;19976;-57
2022/03/18 05:31:39;;;;;;;;;;;21.10;35.20;;;;;;5142491;27;19946;-57
2022/03/18 05:34:05;;;;;;;;;;;21.00;35.20;;;;;;5147897;27;20371;-58
2022/03/18 05:36:31;;;;;;;;;;;21.10;35.10;;;;;;5142673;27;20030;-52
2022/03/18 05:38:57;;;;;;;;;;;21.00;35.20;;;;;;5142441;27;20256;-59
2022/03/18 05:41:24;;;;;;;;;;;21.20;35.00;;;;;;5146066;27;19923;-55
2022/03/18 05:43:50;;;;;;;;;;;21.20;34.90;;;;;;5139508;27;19923;-50
2022/03/18 05:46:15;;;;;;;;;;;21.30;34.80;;;;;;5145554;27;19923;-58
2022/03/18 05:48:41;;;;;;;;;;;21.20;34.90;;;;;;5145221;27;19923;-58
2022/03/18 05:51:07;;;;;;;;;;;20.90;35.20;;;;;;5142508;27;19923;-57
2022/03/18 05:53:33;;;;;;;;;;;21.30;34.90;;;;;;5147949;27;20021;-49
2022/03/18 05:58:44;;;;;;;;;;;21.20;35.00;;;;;;5142160;27;19927;-51
2022/03/18 06:01:12;;;;;;;;;;;21.00;35.20;;;;;;5142578;27;20014;-57
2022/03/18 06:03:38;;;;;;;;;;;21.10;35.20;;;;;;5142212;27;19923;-52
2022/03/18 06:06:04;;;;;;;;;;;21.20;34.90;;;;;;5142264;27;20046;-59
2022/03/18 06:13:59;;;;;;;;;;;21.20;34.80;;;;;;5142596;27;19927;-58
2022/03/18 06:16:24;;;;;;;;;;;21.00;35.20;;;;;;5151965;27;19930;-53
2022/03/18 06:18:50;;;;;;;;;;;21.20;34.80;;;;;;5143086;27;19927;-58
2022/03/18 06:21:16;;;;;;;;;;;21.20;34.80;;;;;;5144737;27;19924;-58
2022/03/18 06:23:42;;;;;;;;;;;21.00;34.90;;;;;;5151626;27;20005;-56
2022/03/18 06:26:08;;;;;;;;;;;21.20;34.70;;;;;;5146109;27;19927;-59
2022/03/18 06:28:34;;;;;;;;;;;21.10;34.90;;;;;;5151381;27;19927;-56
2022/03/18 06:31:00;;;;;;;;;;;21.30;34.60;;;;;;5146087;27;19969;-57
2022/03/18 06:33:27;;;;;;;;;;;21.10;34.80;;;;;;5146072;27;19923;-57
2022/03/18 06:35:53;;;;;;;;;;;20.90;35.10;;;;;;5151412;27;19923;-58
2022/03/18 06:38:18;;;;;;;;;;;21.10;34.80;;;;;;5141201;27;19929;-59
2022/03/18 06:40:44;;;;;;;;;;;21.00;35.00;;;;;;5145662;27;20398;-52
2022/03/18 06:43:10;;;;;;;;;;;21.30;34.60;;;;;;5151269;27;19934;-59
2022/03/18 06:45:36;;;;;;;;;;;21.00;35.00;;;;;;5145721;27;20022;-50
2022/03/18 06:48:02;;;;;;;;;;;21.20;34.70;;;;;;5151006;27;19934;-58
2022/03/18 06:50:27;;;;;;;;;;;21.10;34.90;;;;;;5145642;27;19934;-48
2022/03/18 06:52:53;;;;;;;;;;;21.00;35.00;;;;;;5145582;27;19923;-54
2022/03/18 06:55:19;;;;;;;;;;;21.10;34.90;;;;;;5149272;27;20405;-59
2022/03/18 06:57:45;;;;;;;;;;;21.00;35.10;;;;;;5123623;27;20385;-50
2022/03/18 07:00:11;;;;;;;;;;;21.30;34.60;;;;;;5145487;27;20638;-59
2022/03/18 07:02:37;;;;;;;;;;;21.00;34.90;;;;;;5148793;27;19948;-59
2022/03/18 07:05:03;;;;;;;;;;;21.10;34.70;;;;;;5145223;27;19934;-59
2022/03/18 07:07:29;;;;;;;;;;;20.90;35.00;;;;;;5150089;27;19934;-54
2022/03/18 07:09:55;;;;;;;;;;;21.30;34.50;;;;;;5146224;27;19923;-60
2022/03/18 07:12:21;;;;;;;;;;;21.00;34.90;;;;;;5145551;27;19931;-52
2022/03/18 07:14:47;;;;;;;;;;;21.20;34.60;;;;;;5146047;27;19934;-59
2022/03/18 07:19:57;;;;;;;;;;;21.10;34.70;;;;;;5145254;27;20303;-56
2022/03/18 07:22:26;;;;;;;;;;;21.20;34.70;;;;;;5150546;27;19954;-60
2022/03/18 07:24:52;;;;;;;;;;;20.90;35.10;;;;;;5126544;27;20295;-58
2022/03/18 07:27:17;;;;;;;;;;;21.20;34.70;;;;;;5144240;27;20126;-56
2022/03/18 07:29:43;;;;;;;;;;;20.80;35.20;;;;;;5150068;27;19927;-59
2022/03/18 07:32:09;;;;;;;;;;;21.10;34.80;;;;;;5144009;27;20362;-56
2022/03/18 07:34:35;;;;;;;;;;;21.00;34.90;;;;;;5145815;27;20370;-58
2022/03/18 07:37:01;;;;;;;;;;;21.10;34.70;;;;;;5145616;27;20026;-58
2022/03/18 07:39:26;;;;;;;;;;;21.00;34.80;;;;;;5126504;27;19923;-56
2022/03/18 07:41:52;;;;;;;;;;;21.30;34.50;;;;;;5150162;27;20337;-58
2022/03/18 07:44:18;;;;;;;;;;;20.90;35.10;;;;;;5125956;27;20022;-51
2022/03/18 07:46:44;;;;;;;;;;;21.20;34.60;;;;;;5144614;27;20122;-60
2022/03/18 07:49:09;;;;;;;;;;;21.10;34.90;;;;;;5150025;27;19934;-59
2022/03/18 07:51:35;;;;;;;;;;;21.10;34.60;;;;;;5140430;27;19930;-60
2022/03/18 07:54:01;;;;;;;;;;;21.00;34.90;;;;;;5146581;27;19976;-58
2022/03/18 07:56:27;;;;;;;;;;;20.90;35.00;;;;;;5147353;27;19923;-52
2022/03/18 07:58:54;;;;;;;;;;;21.20;34.70;;;;;;5144517;27;19927;-58
2022/03/18 08:01:20;;;;;;;;;;;20.90;35.20;;;;;;5149558;27;19927;-55
2022/03/18 08:03:46;;;;;;;;;;;21.10;34.80;;;;;;5144308;27;19934;-59
2022/03/18 08:06:11;;;;;;;;;;;20.90;35.10;;;;;;5144224;27;19924;-53
2022/03/18 08:08:37;;;;;;;;;;;21.20;34.50;;;;;;5148909;27;22555;-58
2022/03/18 08:11:03;;;;;;;;;;;21.10;34.80;;;;;;5138973;27;20302;-57
2022/03/18 08:13:29;;;;;;;;;;;21.30;34.50;;;;;;5126041;27;19945;-57
2022/03/18 08:15:54;;;;;;;;;;;21.00;35.00;;;;;;5149176;27;19962;-57
2022/03/18 08:18:20;;;;;;;;;;;21.30;34.40;;;;;;5144056;27;19923;-58
2022/03/18 08:20:50;;;;;;;;;;;20.90;34.80;;;;;;5131006;27;19923;-49
2022/03/18 08:23:15;;;;;;;;;;;21.30;34.30;;;;;;5144275;27;19930;-59
2022/03/18 08:25:41;;;;;;;;;;;21.00;34.60;;;;;;5144020;27;19927;-55
2022/03/18 08:28:07;;;;;;;;;;;21.10;34.50;;;;;;5146297;27;20573;-56
2022/03/18 08:30:33;;;;;;;;;;;21.10;34.50;;;;;;5122739;27;19930;-56
2022/03/18 08:32:59;;;;;;;;;;;21.00;34.50;;;;;;5143614;27;20125;-50
2022/03/18 08:35:25;;;;;;;;;;;21.20;34.20;;;;;;5149085;27;19937;-57
2022/03/18 08:37:57;;;;;;;;;;;21.10;34.40;;;;;;5143336;27;19965;-54
2022/03/18 08:40:27;;;;;;;;;;;21.20;34.20;;;;;;5148963;27;19929;-58
2022/03/18 08:42:53;;;;;;;;;;;21.10;34.50;;;;;;5126680;27;20014;-58
2022/03/18 08:45:19;;;;;;;;;;;21.30;34.10;;;;;;5143150;27;19923;-59
2022/03/18 08:47:44;;;;;;;;;;;21.10;34.30;;;;;;5143344;27;20271;-59
2022/03/18 08:50:10;;;;;;;;;;;20.90;34.40;;;;;;5143155;27;19927;-47
2022/03/18 08:52:36;;;;;;;;;;;21.20;34.10;;;;;;5143303;27;19931;-59
2022/03/18 08:55:02;;;;;;;;;;;20.90;34.60;;;;;;5146676;27;20006;-50
2022/03/18 08:57:28;;;;;;;;;;;21.30;34.00;;;;;;5143034;27;19991;-59
2022/03/18 08:59:55;;;;;;;;;;;21.00;34.30;;;;;;5144617;27;19945;-55
2022/03/18 09:02:21;;;;;;;;;;;21.30;33.90;;;;;;5148054;27;20374;-58
2022/03/18 09:04:48;;;;;;;;;;;20.90;34.20;;;;;;5141488;27;19930;-53
2022/03/18 09:07:14;;;;;;;;;;;21.20;33.80;;;;;;5144608;27;19997;-59
2022/03/18 09:09:40;;;;;;;;;;;20.90;34.40;;;;;;5142883;27;20285;-56
2022/03/18 09:12:06;;;;;;;;;;;21.20;34.00;;;;;;5143357;27;19927;-49
2022/03/18 09:14:31;;;;;;;;;;;21.00;34.20;;;;;;5148246;27;19923;-50
2022/03/18 09:16:57;;;;;;;;;;;21.20;33.90;;;;;;5142880;27;19958;-58
2022/03/18 09:19:23;;;;;;;;;;;21.00;34.10;;;;;;5142900;27;19953;-56
2022/03/18 09:21:49;;;;;;;;;;;21.30;33.70;;;;;;5147972;27;19948;-59
2022/03/18 09:24:15;;;;;;;;;;;20.90;34.10;;;;;;5137988;27;19937;-56
2022/03/18 09:26:41;;;;;;;;;;;21.30;33.50;;;;;;5147463;27;20294;-59
2022/03/18 09:29:07;;;;;;;;;;;21.00;33.80;;;;;;5142529;27;19931;-55
2022/03/18 09:31:32;;;;;;;;;;;21.10;33.50;;;;;;5142584;27;19922;-58
2022/03/18 09:33:58;;;;;;;;;;;21.10;33.70;;;;;;5148076;27;19967;-51
2022/03/18 09:36:24;;;;;;;;;;;21.10;33.60;;;;;;5142664;27;19930;-52
2022/03/18 09:38:50;;;;;;;;;;;21.30;33.30;;;;;;5142509;27;20182;-59
2022/03/18 09:41:16;;;;;;;;;;;20.90;33.70;;;;;;5147663;27;20323;-57
2022/03/18 09:43:42;;;;;;;;;;;21.20;33.20;;;;;;5137468;27;19985;-59
2022/03/18 09:46:09;;;;;;;;;;;21.10;33.40;;;;;;5129377;27;19938;-59
2022/03/18 09:48:34;;;;;;;;;;;21.10;33.20;;;;;;5141945;27;19979;-59
2022/03/18 09:51:00;;;;;;;;;;;21.10;33.40;;;;;;5141998;27;20294;-58
2022/03/18 09:53:26;;;;;;;;;;;21.20;33.00;;;;;;5147799;27;19927;-59
2022/03/18 09:55:52;;;;;;;;;;;21.10;33.20;;;;;;5142188;27;20400;-58
2022/03/18 09:58:18;;;;;;;;;;;21.00;33.20;;;;;;5142272;27;19989;-55
2022/03/18 10:00:45;;;;;;;;;;;21.20;33.00;;;;;;5145001;27;19923;-59
2022/03/18 10:03:16;;;;;;;;;;;21.00;33.20;;;;;;5140016;27;19968;-57
2022/03/18 10:05:56;;;;;;;;;;;21.30;32.80;;;;;;5144418;27;19937;-59
2022/03/18 10:08:22;;;;;;;;;;;21.00;33.20;;;;;;5147214;27;19923;-59
2022/03/18 10:10:48;;;;;;;;;;;21.20;32.90;;;;;;5123625;27;19934;-58
2022/03/18 10:13:15;;;;;;;;;;;21.00;33.20;;;;;;5147919;27;19923;-56
2022/03/18 10:15:40;;;;;;;;;;;21.20;32.90;;;;;;5142488;27;19927;-59
2022/03/18 10:18:09;;;;;;;;;;;21.10;33.20;;;;;;5142293;27;20433;-56
2022/03/18 10:20:38;;;;;;;;;;;21.30;32.90;;;;;;5123916;27;19923;-59
2022/03/18 10:23:16;;;;;;;;;;;21.10;33.20;;;;;;5142057;27;19923;-58
2022/03/18 10:25:50;;;;;;;;;;;21.10;32.90;;;;;;5142210;27;19923;-59
2022/03/18 10:28:31;;;;;;;;;;;21.20;32.80;;;;;;5147634;27;19923;-54
2022/03/18 10:31:10;;;;;;;;;;;21.00;32.90;;;;;;5123851;27;19927;-56
2022/03/18 10:39:38;;;;;;;;;;;21.10;32.30;;;;;;5142656;27;19930;-51
2022/03/18 10:42:14;;;;;;;;;;;21.20;32.20;;;;;;5127559;27;20370;-56
2022/03/18 10:45:12;;;;;;;;;;;20.90;32.70;;;;;;5142152;27;19927;-56
2022/03/18 10:47:41;;;;;;;;;;;21.20;32.40;;;;;;5090133;27;19939;-59
2022/03/18 10:50:10;;;;;;;;;;;21.20;32.50;;;;;;5123221;27;19927;-59
2022/03/18 10:52:39;;;;;;;;;;;21.10;32.60;;;;;;5141750;27;20374;-56
2022/03/18 10:55:21;;;;;;;;;;;21.30;32.20;;;;;;5146955;27;20326;-59
2022/03/18 10:57:48;;;;;;;;;;;21.00;32.60;;;;;;5137000;27;20427;-57
2022/03/18 11:00:14;;;;;;;;;;;21.10;32.40;;;;;;5142571;27;20194;-60
2022/03/18 11:02:40;;;;;;;;;;;21.20;32.50;;;;;;5150889;27;19962;-55
2022/03/18 11:05:06;;;;;;;;;;;21.10;32.50;;;;;;5145544;27;20310;-57
2022/03/18 11:07:34;;;;;;;;;;;21.10;32.50;;;;;;5150347;27;20064;-51
2022/03/18 11:12:45;;;;;;;;;;;21.20;32.40;;;;;;5145112;27;20382;-50
2022/03/18 11:15:10;;;;;;;;;;;20.90;32.70;;;;;;5145909;27;19932;-55
2022/03/18 11:17:38;;;;;;;;;;;21.10;32.60;;;;;;5144316;27;20429;-48
2022/03/18 11:20:04;;;;;;;;;;;21.00;32.70;;;;;;5127041;27;19963;-58
2022/03/18 11:22:34;;;;;;;;;;;21.30;32.50;;;;;;5132043;27;19931;-52
2022/03/18 11:24:59;;;;;;;;;;;21.00;32.70;;;;;;5144879;27;19923;-47
2022/03/18 11:27:25;;;;;;;;;;;21.20;32.70;;;;;;5144887;27;20515;-58
2022/03/18 11:30:10;;;;;;;;;;;20.90;33.10;;;;;;5150120;27;19927;-56
2022/03/18 11:32:36;;;;;;;;;;;21.30;32.80;;;;;;5143766;27;19927;-57
2022/03/18 11:35:06;;;;;;;;;;;21.00;33.20;;;;;;5140184;27;20033;-58
2022/03/18 11:37:33;;;;;;;;;;;21.30;32.80;;;;;;5150282;27;19930;-58
2022/03/18 11:40:17;;;;;;;;;;;20.80;33.40;;;;;;5144857;27;19936;-59
2022/03/18 11:42:45;;;;;;;;;;;21.20;32.90;;;;;;5144427;27;20667;-57
2022/03/18 11:45:12;;;;;;;;;;;21.00;33.20;;;;;;5132054;27;20394;-59
2022/03/18 11:47:39;;;;;;;;;;;21.20;32.80;;;;;;5124737;27;19928;-59
2022/03/18 11:50:32;;;;;;;;;;;21.10;33.00;;;;;;5149812;27;20055;-57
2022/03/18 11:52:57;;;;;;;;;;;21.30;32.90;;;;;;5103027;27;19923;-58
2022/03/18 11:55:23;;;;;;;;;;;21.30;32.90;;;;;;5144466;27;19980;-58
2022/03/18 11:57:49;;;;;;;;;;;21.00;33.40;;;;;;5131596;27;19929;-58
2022/03/18 12:00:30;;;;;;;;;;;21.30;32.90;;;;;;5144635;27;20017;-59
2022/03/18 12:02:56;;;;;;;;;;;21.10;33.20;;;;;;5144538;27;19923;-56
2022/03/18 12:05:22;;;;;;;;;;;21.20;33.00;;;;;;5149713;27;20298;-59
2022/03/18 12:07:49;;;;;;;;;;;21.00;33.20;;;;;;5125147;27;19923;-58
2022/03/18 12:10:15;;;;;;;;;;;21.30;32.80;;;;;;5141037;27;20026;-57
2022/03/18 12:12:41;;;;;;;;;;;21.00;33.20;;;;;;5146845;27;19923;-58
2022/03/18 12:15:09;;;;;;;;;;;21.30;32.80;;;;;;5144118;27;20378;-58
2022/03/18 12:17:44;;;;;;;;;;;21.00;33.10;;;;;;5144148;27;20660;-58
2022/03/18 12:20:20;;;;;;;;;;;21.30;32.60;;;;;;5149485;27;21013;-58
2022/03/18 12:22:46;;;;;;;;;;;21.10;33.10;;;;;;5143891;27;20026;-57
2022/03/18 12:25:12;;;;;;;;;;;21.20;32.80;;;;;;5143604;27;20511;-59
2022/03/18 12:27:39;;;;;;;;;;;21.20;33.00;;;;;;5148693;27;19923;-50
2022/03/18 12:30:09;;;;;;;;;;;21.00;33.20;;;;;;5138599;27;19923;-56
2022/03/18 12:32:37;;;;;;;;;;;21.30;32.90;;;;;;5149018;27;19970;-58
2022/03/18 12:35:04;;;;;;;;;;;20.90;33.30;;;;;;5143465;27;19931;-57
2022/03/18 12:37:34;;;;;;;;;;;21.30;33.00;;;;;;5143558;27;20282;-58
2022/03/18 12:40:09;;;;;;;;;;;21.00;33.30;;;;;;5148915;27;19968;-58
2022/03/18 12:42:48;;;;;;;;;;;21.30;32.90;;;;;;5143421;27;19931;-57
2022/03/18 12:45:27;;;;;;;;;;;21.10;33.20;;;;;;5143427;27;20297;-59
2022/03/18 12:47:54;;;;;;;;;;;21.20;32.90;;;;;;5143440;27;20025;-58
2022/03/18 12:50:24;;;;;;;;;;;21.10;33.00;;;;;;5143108;27;19930;-58
2022/03/18 12:52:50;;;;;;;;;;;21.20;32.80;;;;;;5143318;27;20026;-55
2022/03/18 12:55:18;;;;;;;;;;;21.20;32.70;;;;;;5148727;27;20343;-60
2022/03/18 12:57:43;;;;;;;;;;;21.20;32.70;;;;;;5143569;27;19930;-59
2022/03/18 13:00:11;;;;;;;;;;;21.10;32.90;;;;;;5143207;27;19934;-51
2022/03/18 13:02:37;;;;;;;;;;;21.00;32.90;;;;;;5148559;27;20067;-58
2022/03/18 13:05:05;;;;;;;;;;;21.30;32.40;;;;;;5142006;27;20363;-58
2022/03/18 13:07:31;;;;;;;;;;;21.00;32.70;;;;;;5144446;27;19923;-58
2022/03/18 13:09:57;;;;;;;;;;;21.30;32.30;;;;;;5143190;27;19927;-59
2022/03/18 13:12:23;;;;;;;;;;;21.00;32.80;;;;;;5143048;27;20404;-58
2022/03/18 13:14:53;;;;;;;;;;;21.30;32.30;;;;;;5148432;27;19923;-50
2022/03/18 13:17:23;;;;;;;;;;;21.10;32.30;;;;;;5142948;27;20886;-58
2022/03/18 13:19:50;;;;;;;;;;;21.30;32.10;;;;;;5142685;27;19930;-52
2022/03/18 13:22:17;;;;;;;;;;;21.10;32.30;;;;;;5148238;27;19971;-57
2022/03/18 13:24:42;;;;;;;;;;;21.20;32.10;;;;;;5118210;27;19930;-59
2022/03/18 13:27:08;;;;;;;;;;;21.10;32.00;;;;;;5141874;27;19931;-59
2022/03/18 13:35:10;;;;;;;;;;;21.30;32.00;;;;;;5142638;27;19989;-59
2022/03/18 13:37:36;;;;;;;;;;;21.10;32.40;;;;;;5148021;27;19927;-60
2022/03/18 13:40:12;;;;;;;;;;;21.30;32.10;;;;;;5142575;27;20278;-49
2022/03/18 13:42:37;;;;;;;;;;;21.30;32.20;;;;;;5140236;27;19975;-53
2022/03/18 13:45:04;;;;;;;;;;;21.00;32.60;;;;;;5145611;27;20029;-55
2022/03/18 13:47:43;;;;;;;;;;;21.30;32.20;;;;;;5142474;27;19933;-58
2022/03/18 13:50:09;;;;;;;;;;;21.00;32.60;;;;;;5146619;27;19922;-56
2022/03/18 13:52:35;;;;;;;;;;;21.30;32.10;;;;;;5143801;27;20393;-56
2022/03/18 13:55:01;;;;;;;;;;;21.00;32.60;;;;;;5142617;27;19996;-58
2022/03/18 13:57:27;;;;;;;;;;;21.20;32.20;;;;;;5147704;27;19923;-52
2022/03/18 13:59:58;;;;;;;;;;;21.20;32.30;;;;;;5142014;27;19968;-59
2022/03/18 14:02:26;;;;;;;;;;;21.10;32.40;;;;;;5137165;27;19930;-51
2022/03/18 14:04:54;;;;;;;;;;;21.10;32.50;;;;;;5148000;27;19923;-53
2022/03/18 14:07:19;;;;;;;;;;;20.90;32.60;;;;;;5141991;27;19923;-57
2022/03/18 14:09:55;;;;;;;;;;;21.20;32.20;;;;;;5142103;27;20289;-57
2022/03/18 14:12:20;;;;;;;;;;;21.10;32.40;;;;;;5147873;27;20339;-58
2022/03/18 14:14:47;;;;;;;;;;;21.20;32.30;;;;;;5141983;27;19952;-57
2022/03/18 14:17:13;;;;;;;;;;;21.00;32.70;;;;;;5147650;27;20443;-55
2022/03/18 14:19:44;;;;;;;;;;;21.30;32.30;;;;;;5139254;27;19936;-56
2022/03/18 14:22:10;;;;;;;;;;;21.10;32.70;;;;;;5140278;27;19936;-56
2022/03/18 14:24:36;;;;;;;;;;;21.10;32.70;;;;;;5147665;27;19967;-59
2022/03/18 14:27:01;;;;;;;;;;;21.20;32.70;;;;;;5142092;27;20339;-56
2022/03/18 14:29:31;;;;;;;;;;;21.20;32.50;;;;;;5141962;27;19930;-56
2022/03/18 14:31:57;;;;;;;;;;;21.20;32.40;;;;;;5147397;27;19933;-48
2022/03/18 14:34:23;;;;;;;;;;;21.10;32.80;;;;;;5141862;27;19971;-58
2022/03/18 14:36:48;;;;;;;;;;;21.20;32.50;;;;;;5145445;27;20327;-49
2022/03/18 14:39:14;;;;;;;;;;;21.00;32.70;;;;;;5146164;27;20460;-56
2022/03/18 14:41:40;;;;;;;;;;;21.00;32.60;;;;;;5145745;27;19927;-56
2022/03/18 14:44:08;;;;;;;;;;;21.30;32.40;;;;;;5151228;27;19926;-57
2022/03/18 14:46:33;;;;;;;;;;;21.20;32.50;;;;;;5145810;27;19938;-58
2022/03/18 14:48:59;;;;;;;;;;;21.10;32.40;;;;;;5145696;27;20313;-60